sensor_id;sensor_type;location;lat;lon;timestamp;P1;durP1;ratioP1;P2;durP2;ratioP2
62848;SDS011;48941;49.516;8.286;2022-08-26T00:02:04;10.60;;;4.70;;
62848;SDS011;48941;49.516;8.286;2022-08-26T00:04:34;5.82;;;4.65;;
62848;SDS011;48941;49.516;8.286;2022-08-26T00:07:02;6.22;;;4.50;;
62848;SDS011;48941;49.516;8.286;2022-08-26T00:09:30;6.05;;;4.75;;
62848;SDS011;48941;49.516;8.286;2022-08-26T00:12:05;6.95;;;4.65;;
62848;SDS011;48941;49.516;8.286;2022-08-26T00:14:37;6.22;;;4.53;;
62848;SDS011;48941;49.516;8.286;2022-08-26T00:17:06;9.13;;;4.53;;
62848;SDS011;48941;49.516;8.286;2022-08-26T00:19:35;6.93;;;4.70;;
62848;SDS011;48941;49.516;8.286;2022-08-26T00:22:04;5.75;;;4.35;;
62848;SDS011;48941;49.516;8.286;2022-08-26T00:24:32;8.32;;;4.20;;
62848;SDS011;48941;49.516;8.286;2022-08-26T00:27:00;8.20;;;4.80;;
62848;SDS011;48941;49.516;8.286;2022-08-26T00:29:28;8.00;;;4.60;;
62848;SDS011;48941;49.516;8.286;2022-08-26T00:32:03;11.43;;;4.75;;
62848;SDS011;48941;49.516;8.286;2022-08-26T00:34:32;7.43;;;4.15;;
62848;SDS011;48941;49.516;8.286;2022-08-26T00:37:03;7.07;;;4.57;;
62848;SDS011;48941;49.516;8.286;2022-08-26T00:39:35;5.55;;;4.40;;
62848;SDS011;48941;49.516;8.286;2022-08-26T00:42:03;6.90;;;5.03;;
62848;SDS011;48941;49.516;8.286;2022-08-26T00:44:31;9.68;;;4.78;;
62848;SDS011;48941;49.516;8.286;2022-08-26T00:46:59;6.88;;;4.40;;
62848;SDS011;48941;49.516;8.286;2022-08-26T00:49:34;6.38;;;4.88;;
62848;SDS011;48941;49.516;8.286;2022-08-26T00:52:07;6.75;;;4.38;;
62848;SDS011;48941;49.516;8.286;2022-08-26T00:54:41;6.28;;;5.07;;
62848;SDS011;48941;49.516;8.286;2022-08-26T00:57:12;8.93;;;4.90;;
62848;SDS011;48941;49.516;8.286;2022-08-26T00:59:43;6.70;;;4.82;;
62848;SDS011;48941;49.516;8.286;2022-08-26T01:02:13;5.53;;;4.38;;
62848;SDS011;48941;49.516;8.286;2022-08-26T01:04:46;8.52;;;4.72;;
62848;SDS011;48941;49.516;8.286;2022-08-26T01:07:23;10.05;;;4.90;;
62848;SDS011;48941;49.516;8.286;2022-08-26T01:09:52;7.57;;;4.60;;
62848;SDS011;48941;49.516;8.286;2022-08-26T01:12:21;8.98;;;4.82;;
62848;SDS011;48941;49.516;8.286;2022-08-26T01:14:50;8.23;;;5.03;;
62848;SDS011;48941;49.516;8.286;2022-08-26T01:17:18;10.65;;;5.15;;
62848;SDS011;48941;49.516;8.286;2022-08-26T01:19:47;7.35;;;5.07;;
62848;SDS011;48941;49.516;8.286;2022-08-26T01:22:19;5.10;;;4.45;;
62848;SDS011;48941;49.516;8.286;2022-08-26T01:24:55;6.90;;;4.55;;
62848;SDS011;48941;49.516;8.286;2022-08-26T01:27:23;7.10;;;4.72;;
62848;SDS011;48941;49.516;8.286;2022-08-26T01:29:58;8.10;;;5.00;;
62848;SDS011;48941;49.516;8.286;2022-08-26T01:32:28;10.38;;;4.82;;
62848;SDS011;48941;49.516;8.286;2022-08-26T01:34:59;7.30;;;4.75;;
62848;SDS011;48941;49.516;8.286;2022-08-26T01:37:35;6.50;;;4.60;;
62848;SDS011;48941;49.516;8.286;2022-08-26T01:40:10;8.70;;;5.07;;
62848;SDS011;48941;49.516;8.286;2022-08-26T01:42:42;9.20;;;5.10;;
62848;SDS011;48941;49.516;8.286;2022-08-26T01:45:12;7.03;;;5.07;;
62848;SDS011;48941;49.516;8.286;2022-08-26T01:47:44;9.75;;;4.97;;
62848;SDS011;48941;49.516;8.286;2022-08-26T01:50:22;8.43;;;5.05;;
62848;SDS011;48941;49.516;8.286;2022-08-26T01:52:56;7.90;;;4.88;;
62848;SDS011;48941;49.516;8.286;2022-08-26T01:55:27;7.68;;;5.10;;
62848;SDS011;48941;49.516;8.286;2022-08-26T01:58:00;8.50;;;5.38;;
62848;SDS011;48941;49.516;8.286;2022-08-26T02:00:31;9.20;;;4.95;;
62848;SDS011;48941;49.516;8.286;2022-08-26T02:03:01;5.47;;;4.63;;
62848;SDS011;48941;49.516;8.286;2022-08-26T02:05:44;8.73;;;4.82;;
62848;SDS011;48941;49.516;8.286;2022-08-26T02:08:16;12.52;;;5.35;;
62848;SDS011;48941;49.516;8.286;2022-08-26T02:10:51;7.65;;;4.80;;
62848;SDS011;48941;49.516;8.286;2022-08-26T02:13:20;10.35;;;5.15;;
62848;SDS011;48941;49.516;8.286;2022-08-26T02:15:50;11.13;;;5.25;;
62848;SDS011;48941;49.516;8.286;2022-08-26T02:18:20;6.38;;;4.80;;
62848;SDS011;48941;49.516;8.286;2022-08-26T02:20:50;10.55;;;5.53;;
62848;SDS011;48941;49.516;8.286;2022-08-26T02:23:19;7.15;;;5.07;;
62848;SDS011;48941;49.516;8.286;2022-08-26T02:25:50;10.85;;;5.30;;
62848;SDS011;48941;49.516;8.286;2022-08-26T02:28:23;7.13;;;5.40;;
62848;SDS011;48941;49.516;8.286;2022-08-26T02:30:56;7.65;;;5.20;;
62848;SDS011;48941;49.516;8.286;2022-08-26T02:33:26;7.90;;;5.25;;
62848;SDS011;48941;49.516;8.286;2022-08-26T02:35:54;10.93;;;5.18;;
62848;SDS011;48941;49.516;8.286;2022-08-26T02:38:22;8.88;;;5.90;;
62848;SDS011;48941;49.516;8.286;2022-08-26T02:40:50;8.00;;;5.28;;
62848;SDS011;48941;49.516;8.286;2022-08-26T02:43:19;7.65;;;5.18;;
62848;SDS011;48941;49.516;8.286;2022-08-26T02:45:57;9.32;;;6.05;;
62848;SDS011;48941;49.516;8.286;2022-08-26T02:48:27;8.93;;;5.35;;
62848;SDS011;48941;49.516;8.286;2022-08-26T02:50:57;6.07;;;5.30;;
62848;SDS011;48941;49.516;8.286;2022-08-26T02:53:25;10.40;;;5.50;;
62848;SDS011;48941;49.516;8.286;2022-08-26T02:55:57;8.85;;;5.60;;
62848;SDS011;48941;49.516;8.286;2022-08-26T02:58:26;8.20;;;5.10;;
62848;SDS011;48941;49.516;8.286;2022-08-26T03:00:54;6.22;;;5.25;;
62848;SDS011;48941;49.516;8.286;2022-08-26T03:03:22;5.95;;;4.75;;
62848;SDS011;48941;49.516;8.286;2022-08-26T03:05:50;6.13;;;5.07;;
62848;SDS011;48941;49.516;8.286;2022-08-26T03:08:19;12.45;;;5.72;;
62848;SDS011;48941;49.516;8.286;2022-08-26T03:10:48;7.68;;;5.30;;
62848;SDS011;48941;49.516;8.286;2022-08-26T03:13:16;8.13;;;5.30;;
62848;SDS011;48941;49.516;8.286;2022-08-26T03:15:45;6.43;;;5.13;;
62848;SDS011;48941;49.516;8.286;2022-08-26T03:18:13;7.30;;;5.78;;
62848;SDS011;48941;49.516;8.286;2022-08-26T03:20:41;6.70;;;5.30;;
62848;SDS011;48941;49.516;8.286;2022-08-26T03:23:09;9.88;;;5.35;;
62848;SDS011;48941;49.516;8.286;2022-08-26T03:25:38;7.78;;;5.22;;
62848;SDS011;48941;49.516;8.286;2022-08-26T03:28:06;12.65;;;5.50;;
62848;SDS011;48941;49.516;8.286;2022-08-26T03:30:34;8.57;;;5.30;;
62848;SDS011;48941;49.516;8.286;2022-08-26T03:33:12;8.88;;;5.03;;
62848;SDS011;48941;49.516;8.286;2022-08-26T03:35:41;12.32;;;6.13;;
62848;SDS011;48941;49.516;8.286;2022-08-26T03:38:10;7.95;;;4.95;;
62848;SDS011;48941;49.516;8.286;2022-08-26T03:40:38;9.43;;;5.53;;
62848;SDS011;48941;49.516;8.286;2022-08-26T03:43:08;8.75;;;5.13;;
62848;SDS011;48941;49.516;8.286;2022-08-26T03:45:37;15.77;;;5.45;;
62848;SDS011;48941;49.516;8.286;2022-08-26T03:48:07;11.57;;;5.22;;
62848;SDS011;48941;49.516;8.286;2022-08-26T03:50:38;13.30;;;6.13;;
62848;SDS011;48941;49.516;8.286;2022-08-26T03:53:08;9.52;;;5.28;;
62848;SDS011;48941;49.516;8.286;2022-08-26T03:55:38;7.28;;;5.65;;
62848;SDS011;48941;49.516;8.286;2022-08-26T03:58:06;8.60;;;5.50;;
62848;SDS011;48941;49.516;8.286;2022-08-26T04:00:34;9.20;;;5.75;;
62848;SDS011;48941;49.516;8.286;2022-08-26T04:03:02;9.38;;;5.90;;
62848;SDS011;48941;49.516;8.286;2022-08-26T04:05:35;7.22;;;5.40;;
62848;SDS011;48941;49.516;8.286;2022-08-26T04:08:05;7.88;;;5.20;;
62848;SDS011;48941;49.516;8.286;2022-08-26T04:10:35;8.98;;;5.25;;
62848;SDS011;48941;49.516;8.286;2022-08-26T04:13:03;7.68;;;5.65;;
62848;SDS011;48941;49.516;8.286;2022-08-26T04:15:31;6.97;;;5.40;;
62848;SDS011;48941;49.516;8.286;2022-08-26T04:17:59;9.95;;;5.78;;
62848;SDS011;48941;49.516;8.286;2022-08-26T04:20:27;7.95;;;5.60;;
62848;SDS011;48941;49.516;8.286;2022-08-26T04:22:55;12.63;;;6.00;;
62848;SDS011;48941;49.516;8.286;2022-08-26T04:25:24;9.63;;;6.32;;
62848;SDS011;48941;49.516;8.286;2022-08-26T04:27:53;12.13;;;5.40;;
62848;SDS011;48941;49.516;8.286;2022-08-26T04:30:22;20.38;;;6.10;;
62848;SDS011;48941;49.516;8.286;2022-08-26T04:32:50;18.08;;;6.00;;
62848;SDS011;48941;49.516;8.286;2022-08-26T04:35:19;14.68;;;6.43;;
62848;SDS011;48941;49.516;8.286;2022-08-26T04:37:51;17.73;;;5.93;;
62848;SDS011;48941;49.516;8.286;2022-08-26T04:40:19;9.85;;;5.88;;
62848;SDS011;48941;49.516;8.286;2022-08-26T04:42:49;15.90;;;6.63;;
62848;SDS011;48941;49.516;8.286;2022-08-26T04:45:16;12.82;;;5.90;;
62848;SDS011;48941;49.516;8.286;2022-08-26T04:47:50;8.95;;;5.90;;
62848;SDS011;48941;49.516;8.286;2022-08-26T04:50:19;8.70;;;5.87;;
62848;SDS011;48941;49.516;8.286;2022-08-26T04:52:50;10.70;;;5.75;;
62848;SDS011;48941;49.516;8.286;2022-08-26T04:55:17;10.98;;;5.45;;
62848;SDS011;48941;49.516;8.286;2022-08-26T04:57:52;15.45;;;5.65;;
62848;SDS011;48941;49.516;8.286;2022-08-26T05:00:20;11.23;;;5.47;;
62848;SDS011;48941;49.516;8.286;2022-08-26T05:02:48;9.35;;;5.80;;
62848;SDS011;48941;49.516;8.286;2022-08-26T05:05:16;12.77;;;5.53;;
62848;SDS011;48941;49.516;8.286;2022-08-26T05:07:46;9.35;;;5.45;;
62848;SDS011;48941;49.516;8.286;2022-08-26T05:10:15;15.95;;;6.53;;
62848;SDS011;48941;49.516;8.286;2022-08-26T05:12:43;10.90;;;6.15;;
62848;SDS011;48941;49.516;8.286;2022-08-26T05:15:13;8.10;;;5.75;;
62848;SDS011;48941;49.516;8.286;2022-08-26T05:17:41;12.18;;;5.53;;
62848;SDS011;48941;49.516;8.286;2022-08-26T05:20:09;9.63;;;5.55;;
62848;SDS011;48941;49.516;8.286;2022-08-26T05:22:37;10.30;;;5.30;;
62848;SDS011;48941;49.516;8.286;2022-08-26T05:25:06;9.95;;;5.80;;
62848;SDS011;48941;49.516;8.286;2022-08-26T05:27:34;12.70;;;6.25;;
62848;SDS011;48941;49.516;8.286;2022-08-26T05:30:02;22.88;;;6.60;;
62848;SDS011;48941;49.516;8.286;2022-08-26T05:32:33;16.88;;;7.05;;
62848;SDS011;48941;49.516;8.286;2022-08-26T05:35:01;20.17;;;6.53;;
62848;SDS011;48941;49.516;8.286;2022-08-26T05:37:35;20.80;;;6.28;;
62848;SDS011;48941;49.516;8.286;2022-08-26T05:40:03;20.23;;;6.07;;
62848;SDS011;48941;49.516;8.286;2022-08-26T05:42:33;23.92;;;6.57;;
62848;SDS011;48941;49.516;8.286;2022-08-26T05:45:01;23.77;;;7.28;;
62848;SDS011;48941;49.516;8.286;2022-08-26T05:47:29;17.73;;;6.05;;
62848;SDS011;48941;49.516;8.286;2022-08-26T05:49:59;17.23;;;6.80;;
62848;SDS011;48941;49.516;8.286;2022-08-26T05:52:31;16.98;;;6.18;;
62848;SDS011;48941;49.516;8.286;2022-08-26T05:54:59;14.35;;;6.10;;
62848;SDS011;48941;49.516;8.286;2022-08-26T05:57:27;23.50;;;6.25;;
62848;SDS011;48941;49.516;8.286;2022-08-26T05:59:56;28.15;;;6.90;;
62848;SDS011;48941;49.516;8.286;2022-08-26T06:02:24;14.07;;;5.93;;
62848;SDS011;48941;49.516;8.286;2022-08-26T06:04:52;11.77;;;6.00;;
62848;SDS011;48941;49.516;8.286;2022-08-26T06:07:21;15.20;;;5.95;;
62848;SDS011;48941;49.516;8.286;2022-08-26T06:10:10;16.00;;;6.65;;
62848;SDS011;48941;49.516;8.286;2022-08-26T06:12:57;17.98;;;5.50;;
62848;SDS011;48941;49.516;8.286;2022-08-26T06:15:38;17.63;;;6.55;;
62848;SDS011;48941;49.516;8.286;2022-08-26T06:18:09;16.58;;;6.45;;
62848;SDS011;48941;49.516;8.286;2022-08-26T06:20:39;16.02;;;6.10;;
62848;SDS011;48941;49.516;8.286;2022-08-26T06:23:24;25.80;;;6.40;;
62848;SDS011;48941;49.516;8.286;2022-08-26T06:26:11;13.05;;;6.57;;
62848;SDS011;48941;49.516;8.286;2022-08-26T06:28:39;22.85;;;7.18;;
62848;SDS011;48941;49.516;8.286;2022-08-26T06:31:10;12.32;;;6.20;;
62848;SDS011;48941;49.516;8.286;2022-08-26T06:33:40;11.63;;;5.90;;
62848;SDS011;48941;49.516;8.286;2022-08-26T06:36:08;14.43;;;5.60;;
62848;SDS011;48941;49.516;8.286;2022-08-26T06:38:37;12.00;;;5.45;;
62848;SDS011;48941;49.516;8.286;2022-08-26T06:41:07;12.65;;;5.00;;
62848;SDS011;48941;49.516;8.286;2022-08-26T06:43:37;10.73;;;5.57;;
62848;SDS011;48941;49.516;8.286;2022-08-26T06:46:06;10.88;;;5.63;;
62848;SDS011;48941;49.516;8.286;2022-08-26T06:51:06;9.85;;;5.70;;
62848;SDS011;48941;49.516;8.286;2022-08-26T06:53:37;11.82;;;5.78;;
62848;SDS011;48941;49.516;8.286;2022-08-26T06:56:07;12.63;;;5.55;;
62848;SDS011;48941;49.516;8.286;2022-08-26T06:58:37;8.63;;;5.45;;
62848;SDS011;48941;49.516;8.286;2022-08-26T07:01:13;11.52;;;5.30;;
62848;SDS011;48941;49.516;8.286;2022-08-26T07:03:43;10.40;;;5.50;;
62848;SDS011;48941;49.516;8.286;2022-08-26T07:06:13;11.25;;;5.95;;
62848;SDS011;48941;49.516;8.286;2022-08-26T07:08:45;12.85;;;5.13;;
62848;SDS011;48941;49.516;8.286;2022-08-26T07:11:13;11.48;;;5.43;;
62848;SDS011;48941;49.516;8.286;2022-08-26T07:13:42;11.77;;;5.63;;
62848;SDS011;48941;49.516;8.286;2022-08-26T07:16:11;10.57;;;5.78;;
62848;SDS011;48941;49.516;8.286;2022-08-26T07:18:42;9.02;;;5.30;;
62848;SDS011;48941;49.516;8.286;2022-08-26T07:21:12;9.48;;;5.15;;
62848;SDS011;48941;49.516;8.286;2022-08-26T07:23:43;10.05;;;5.07;;
62848;SDS011;48941;49.516;8.286;2022-08-26T07:26:14;17.10;;;5.55;;
62848;SDS011;48941;49.516;8.286;2022-08-26T07:28:44;18.65;;;6.32;;
62848;SDS011;48941;49.516;8.286;2022-08-26T07:31:14;12.50;;;5.25;;
62848;SDS011;48941;49.516;8.286;2022-08-26T07:33:43;12.55;;;5.40;;
62848;SDS011;48941;49.516;8.286;2022-08-26T07:36:12;9.43;;;5.28;;
62848;SDS011;48941;49.516;8.286;2022-08-26T07:38:41;11.68;;;5.43;;
62848;SDS011;48941;49.516;8.286;2022-08-26T07:41:11;8.95;;;5.47;;
62848;SDS011;48941;49.516;8.286;2022-08-26T07:43:41;7.80;;;5.75;;
62848;SDS011;48941;49.516;8.286;2022-08-26T07:46:09;10.00;;;5.65;;
62848;SDS011;48941;49.516;8.286;2022-08-26T07:48:41;14.82;;;5.65;;
62848;SDS011;48941;49.516;8.286;2022-08-26T07:51:11;8.02;;;5.07;;
62848;SDS011;48941;49.516;8.286;2022-08-26T07:53:40;11.32;;;5.25;;
62848;SDS011;48941;49.516;8.286;2022-08-26T07:56:08;9.48;;;5.80;;
62848;SDS011;48941;49.516;8.286;2022-08-26T07:58:36;14.75;;;5.32;;
62848;SDS011;48941;49.516;8.286;2022-08-26T08:01:07;9.02;;;5.65;;
62848;SDS011;48941;49.516;8.286;2022-08-26T08:03:35;7.15;;;5.07;;
62848;SDS011;48941;49.516;8.286;2022-08-26T08:06:03;11.85;;;5.43;;
62848;SDS011;48941;49.516;8.286;2022-08-26T08:08:32;10.98;;;5.50;;
62848;SDS011;48941;49.516;8.286;2022-08-26T08:11:00;10.82;;;5.43;;
62848;SDS011;48941;49.516;8.286;2022-08-26T08:13:31;8.88;;;5.78;;
62848;SDS011;48941;49.516;8.286;2022-08-26T08:15:59;10.45;;;5.55;;
62848;SDS011;48941;49.516;8.286;2022-08-26T08:18:28;9.55;;;5.65;;
62848;SDS011;48941;49.516;8.286;2022-08-26T08:20:56;7.43;;;5.53;;
62848;SDS011;48941;49.516;8.286;2022-08-26T08:23:47;9.40;;;5.88;;
62848;SDS011;48941;49.516;8.286;2022-08-26T08:26:15;8.20;;;5.90;;
62848;SDS011;48941;49.516;8.286;2022-08-26T08:28:43;9.07;;;6.05;;
62848;SDS011;48941;49.516;8.286;2022-08-26T08:31:19;8.75;;;5.20;;
62848;SDS011;48941;49.516;8.286;2022-08-26T08:34:09;8.15;;;5.53;;
62848;SDS011;48941;49.516;8.286;2022-08-26T08:36:37;12.77;;;6.43;;
62848;SDS011;48941;49.516;8.286;2022-08-26T08:39:06;10.38;;;6.15;;
62848;SDS011;48941;49.516;8.286;2022-08-26T08:41:40;10.95;;;6.03;;
62848;SDS011;48941;49.516;8.286;2022-08-26T08:44:24;9.73;;;6.32;;
62848;SDS011;48941;49.516;8.286;2022-08-26T08:46:53;11.05;;;5.80;;
62848;SDS011;48941;49.516;8.286;2022-08-26T08:49:26;15.82;;;6.32;;
62848;SDS011;48941;49.516;8.286;2022-08-26T08:51:55;13.43;;;6.35;;
62848;SDS011;48941;49.516;8.286;2022-08-26T08:54:29;13.02;;;6.13;;
62848;SDS011;48941;49.516;8.286;2022-08-26T08:57:00;14.45;;;6.45;;
62848;SDS011;48941;49.516;8.286;2022-08-26T08:59:33;9.38;;;5.82;;
62848;SDS011;48941;49.516;8.286;2022-08-26T09:02:05;12.70;;;6.37;;
62848;SDS011;48941;49.516;8.286;2022-08-26T09:04:52;13.80;;;6.03;;
62848;SDS011;48941;49.516;8.286;2022-08-26T09:07:34;12.10;;;5.90;;
62848;SDS011;48941;49.516;8.286;2022-08-26T09:10:14;12.45;;;6.28;;
62848;SDS011;48941;49.516;8.286;2022-08-26T09:12:57;11.23;;;6.15;;
62848;SDS011;48941;49.516;8.286;2022-08-26T09:15:29;7.88;;;6.15;;
62848;SDS011;48941;49.516;8.286;2022-08-26T09:18:04;10.70;;;7.10;;
62848;SDS011;48941;49.516;8.286;2022-08-26T09:20:42;10.75;;;6.05;;
62848;SDS011;48941;49.516;8.286;2022-08-26T09:23:16;11.85;;;5.93;;
62848;SDS011;48941;49.516;8.286;2022-08-26T09:25:45;10.00;;;5.78;;
62848;SDS011;48941;49.516;8.286;2022-08-26T09:28:16;10.63;;;6.32;;
62848;SDS011;48941;49.516;8.286;2022-08-26T09:30:59;12.00;;;6.53;;
62848;SDS011;48941;49.516;8.286;2022-08-26T09:33:36;9.50;;;6.50;;
62848;SDS011;48941;49.516;8.286;2022-08-26T09:36:14;20.58;;;6.47;;
62848;SDS011;48941;49.516;8.286;2022-08-26T09:38:50;16.77;;;6.20;;
62848;SDS011;48941;49.516;8.286;2022-08-26T09:41:21;11.90;;;6.05;;
62848;SDS011;48941;49.516;8.286;2022-08-26T09:46:49;11.10;;;6.78;;
62848;SDS011;48941;49.516;8.286;2022-08-26T09:49:25;13.85;;;5.78;;
62848;SDS011;48941;49.516;8.286;2022-08-26T09:52:16;13.45;;;6.13;;
62848;SDS011;48941;49.516;8.286;2022-08-26T09:54:58;12.75;;;6.25;;
62848;SDS011;48941;49.516;8.286;2022-08-26T09:57:31;14.48;;;6.35;;
62848;SDS011;48941;49.516;8.286;2022-08-26T10:00:00;16.42;;;6.50;;
62848;SDS011;48941;49.516;8.286;2022-08-26T10:02:38;11.20;;;6.10;;
62848;SDS011;48941;49.516;8.286;2022-08-26T10:05:16;16.40;;;6.97;;
62848;SDS011;48941;49.516;8.286;2022-08-26T10:07:48;11.43;;;6.53;;
62848;SDS011;48941;49.516;8.286;2022-08-26T10:10:19;14.57;;;6.65;;
62848;SDS011;48941;49.516;8.286;2022-08-26T10:12:52;11.93;;;6.78;;
62848;SDS011;48941;49.516;8.286;2022-08-26T10:15:29;12.55;;;6.78;;
62848;SDS011;48941;49.516;8.286;2022-08-26T10:18:14;14.32;;;6.70;;
62848;SDS011;48941;49.516;8.286;2022-08-26T10:20:49;12.35;;;6.43;;
62848;SDS011;48941;49.516;8.286;2022-08-26T10:23:23;14.80;;;7.15;;
62848;SDS011;48941;49.516;8.286;2022-08-26T10:25:54;13.35;;;6.82;;
62848;SDS011;48941;49.516;8.286;2022-08-26T10:28:26;15.45;;;6.72;;
62848;SDS011;48941;49.516;8.286;2022-08-26T10:31:00;9.40;;;6.68;;
62848;SDS011;48941;49.516;8.286;2022-08-26T10:33:31;15.82;;;6.65;;
62848;SDS011;48941;49.516;8.286;2022-08-26T10:36:00;10.65;;;6.10;;
62848;SDS011;48941;49.516;8.286;2022-08-26T10:38:41;10.27;;;7.07;;
62848;SDS011;48941;49.516;8.286;2022-08-26T10:41:10;14.73;;;6.70;;
62848;SDS011;48941;49.516;8.286;2022-08-26T10:43:43;11.38;;;6.55;;
62848;SDS011;48941;49.516;8.286;2022-08-26T10:46:15;20.75;;;7.22;;
62848;SDS011;48941;49.516;8.286;2022-08-26T10:48:53;6.80;;;5.88;;
62848;SDS011;48941;49.516;8.286;2022-08-26T10:51:25;19.05;;;6.40;;
62848;SDS011;48941;49.516;8.286;2022-08-26T10:54:03;14.00;;;5.65;;
62848;SDS011;48941;49.516;8.286;2022-08-26T10:56:38;12.13;;;5.88;;
62848;SDS011;48941;49.516;8.286;2022-08-26T10:59:15;9.60;;;5.72;;
62848;SDS011;48941;49.516;8.286;2022-08-26T11:01:56;12.43;;;5.78;;
62848;SDS011;48941;49.516;8.286;2022-08-26T11:04:35;7.82;;;5.20;;
62848;SDS011;48941;49.516;8.286;2022-08-26T11:10:08;12.48;;;5.22;;
62848;SDS011;48941;49.516;8.286;2022-08-26T11:12:50;11.13;;;5.00;;
62848;SDS011;48941;49.516;8.286;2022-08-26T11:39:30;9.48;;;4.43;;
62848;SDS011;48941;49.516;8.286;2022-08-26T11:42:13;8.18;;;4.45;;
62848;SDS011;48941;49.516;8.286;2022-08-26T11:44:48;7.78;;;4.15;;
62848;SDS011;48941;49.516;8.286;2022-08-26T11:47:25;6.40;;;4.28;;
62848;SDS011;48941;49.516;8.286;2022-08-26T11:50:08;11.23;;;3.78;;
62848;SDS011;48941;49.516;8.286;2022-08-26T11:52:38;32.40;;;5.30;;
62848;SDS011;48941;49.516;8.286;2022-08-26T11:55:07;7.93;;;3.95;;
62848;SDS011;48941;49.516;8.286;2022-08-26T11:57:39;10.13;;;3.83;;
62848;SDS011;48941;49.516;8.286;2022-08-26T12:00:10;6.45;;;3.85;;
62848;SDS011;48941;49.516;8.286;2022-08-26T12:02:49;4.70;;;3.75;;
62848;SDS011;48941;49.516;8.286;2022-08-26T12:05:20;4.57;;;3.90;;
62848;SDS011;48941;49.516;8.286;2022-08-26T12:07:56;6.25;;;4.10;;
62848;SDS011;48941;49.516;8.286;2022-08-26T12:10:29;3.95;;;3.53;;
62848;SDS011;48941;49.516;8.286;2022-08-26T12:13:00;7.10;;;3.92;;
62848;SDS011;48941;49.516;8.286;2022-08-26T12:15:29;7.10;;;3.72;;
62848;SDS011;48941;49.516;8.286;2022-08-26T12:18:02;4.50;;;3.60;;
62848;SDS011;48941;49.516;8.286;2022-08-26T12:20:47;6.50;;;3.90;;
62848;SDS011;48941;49.516;8.286;2022-08-26T12:23:19;4.30;;;3.90;;
62848;SDS011;48941;49.516;8.286;2022-08-26T12:25:53;4.70;;;3.80;;
62848;SDS011;48941;49.516;8.286;2022-08-26T12:28:30;6.40;;;4.20;;
62848;SDS011;48941;49.516;8.286;2022-08-26T12:30:59;6.93;;;4.40;;
62848;SDS011;48941;49.516;8.286;2022-08-26T12:33:29;4.97;;;3.83;;
62848;SDS011;48941;49.516;8.286;2022-08-26T12:35:59;8.95;;;4.20;;
62848;SDS011;48941;49.516;8.286;2022-08-26T12:38:29;8.70;;;4.30;;
62848;SDS011;48941;49.516;8.286;2022-08-26T12:40:59;5.72;;;4.00;;
62848;SDS011;48941;49.516;8.286;2022-08-26T12:43:40;7.20;;;4.22;;
62848;SDS011;48941;49.516;8.286;2022-08-26T12:46:10;6.82;;;4.50;;
62848;SDS011;48941;49.516;8.286;2022-08-26T12:48:42;5.45;;;4.40;;
62848;SDS011;48941;49.516;8.286;2022-08-26T12:51:18;6.65;;;4.70;;
62848;SDS011;48941;49.516;8.286;2022-08-26T12:53:49;6.43;;;4.30;;
62848;SDS011;48941;49.516;8.286;2022-08-26T12:56:19;7.03;;;4.85;;
62848;SDS011;48941;49.516;8.286;2022-08-26T12:58:59;9.10;;;4.72;;
62848;SDS011;48941;49.516;8.286;2022-08-26T13:01:34;8.18;;;4.90;;
62848;SDS011;48941;49.516;8.286;2022-08-26T13:04:05;11.02;;;4.93;;
62848;SDS011;48941;49.516;8.286;2022-08-26T13:06:33;8.50;;;4.70;;
62848;SDS011;48941;49.516;8.286;2022-08-26T13:09:02;7.88;;;4.40;;
62848;SDS011;48941;49.516;8.286;2022-08-26T13:11:57;11.00;;;4.82;;
62848;SDS011;48941;49.516;8.286;2022-08-26T13:14:27;9.27;;;4.75;;
62848;SDS011;48941;49.516;8.286;2022-08-26T13:16:55;9.70;;;4.82;;
62848;SDS011;48941;49.516;8.286;2022-08-26T13:19:26;8.45;;;4.85;;
62848;SDS011;48941;49.516;8.286;2022-08-26T13:21:55;10.35;;;5.07;;
62848;SDS011;48941;49.516;8.286;2022-08-26T13:24:25;6.90;;;4.25;;
62848;SDS011;48941;49.516;8.286;2022-08-26T13:26:57;10.73;;;4.45;;
62848;SDS011;48941;49.516;8.286;2022-08-26T13:29:25;8.23;;;4.53;;
62848;SDS011;48941;49.516;8.286;2022-08-26T13:31:53;6.45;;;4.25;;
62848;SDS011;48941;49.516;8.286;2022-08-26T13:34:23;7.18;;;4.07;;
62848;SDS011;48941;49.516;8.286;2022-08-26T13:36:52;7.60;;;4.68;;
62848;SDS011;48941;49.516;8.286;2022-08-26T13:39:21;7.83;;;4.67;;
62848;SDS011;48941;49.516;8.286;2022-08-26T13:41:50;7.82;;;4.90;;
62848;SDS011;48941;49.516;8.286;2022-08-26T13:44:18;7.35;;;5.35;;
62848;SDS011;48941;49.516;8.286;2022-08-26T13:46:46;7.65;;;5.18;;
62848;SDS011;48941;49.516;8.286;2022-08-26T13:49:15;10.02;;;4.50;;
62848;SDS011;48941;49.516;8.286;2022-08-26T13:51:43;8.73;;;4.72;;
62848;SDS011;48941;49.516;8.286;2022-08-26T13:54:12;8.55;;;4.80;;
62848;SDS011;48941;49.516;8.286;2022-08-26T13:56:40;6.70;;;4.82;;
62848;SDS011;48941;49.516;8.286;2022-08-26T13:59:08;8.70;;;4.97;;
62848;SDS011;48941;49.516;8.286;2022-08-26T14:01:36;8.85;;;5.18;;
62848;SDS011;48941;49.516;8.286;2022-08-26T14:04:05;7.13;;;4.40;;
62848;SDS011;48941;49.516;8.286;2022-08-26T14:06:33;8.48;;;4.55;;
62848;SDS011;48941;49.516;8.286;2022-08-26T14:09:02;7.13;;;4.30;;
62848;SDS011;48941;49.516;8.286;2022-08-26T14:11:32;6.70;;;4.78;;
62848;SDS011;48941;49.516;8.286;2022-08-26T14:14:19;9.18;;;4.90;;
62848;SDS011;48941;49.516;8.286;2022-08-26T14:16:47;10.38;;;5.22;;
62848;SDS011;48941;49.516;8.286;2022-08-26T14:19:25;10.00;;;5.20;;
62848;SDS011;48941;49.516;8.286;2022-08-26T14:21:54;8.18;;;4.55;;
62848;SDS011;48941;49.516;8.286;2022-08-26T14:24:22;12.45;;;4.57;;
62848;SDS011;48941;49.516;8.286;2022-08-26T14:26:51;12.63;;;5.25;;
62848;SDS011;48941;49.516;8.286;2022-08-26T14:29:19;9.32;;;5.00;;
62848;SDS011;48941;49.516;8.286;2022-08-26T14:31:47;11.45;;;5.10;;
62848;SDS011;48941;49.516;8.286;2022-08-26T14:34:15;11.27;;;5.30;;
62848;SDS011;48941;49.516;8.286;2022-08-26T14:36:43;20.33;;;7.50;;
62848;SDS011;48941;49.516;8.286;2022-08-26T14:39:11;28.05;;;9.55;;
62848;SDS011;48941;49.516;8.286;2022-08-26T14:41:41;27.88;;;8.10;;
62848;SDS011;48941;49.516;8.286;2022-08-26T14:44:22;11.13;;;7.88;;
62848;SDS011;48941;49.516;8.286;2022-08-26T14:46:54;17.50;;;8.30;;
62848;SDS011;48941;49.516;8.286;2022-08-26T14:49:23;20.35;;;8.90;;
62848;SDS011;48941;49.516;8.286;2022-08-26T14:51:52;13.48;;;8.27;;
62848;SDS011;48941;49.516;8.286;2022-08-26T14:54:20;12.45;;;8.32;;
62848;SDS011;48941;49.516;8.286;2022-08-26T14:56:50;10.40;;;8.43;;
62848;SDS011;48941;49.516;8.286;2022-08-26T14:59:22;13.00;;;9.82;;
62848;SDS011;48941;49.516;8.286;2022-08-26T15:01:55;11.25;;;9.15;;
62848;SDS011;48941;49.516;8.286;2022-08-26T15:04:23;13.02;;;9.15;;
62848;SDS011;48941;49.516;8.286;2022-08-26T15:06:52;16.75;;;9.25;;
62848;SDS011;48941;49.516;8.286;2022-08-26T15:09:21;14.20;;;9.82;;
62848;SDS011;48941;49.516;8.286;2022-08-26T15:11:50;16.02;;;9.15;;
62848;SDS011;48941;49.516;8.286;2022-08-26T15:14:18;32.10;;;10.32;;
62848;SDS011;48941;49.516;8.286;2022-08-26T15:16:49;22.60;;;10.13;;
62848;SDS011;48941;49.516;8.286;2022-08-26T15:19:19;17.13;;;10.00;;
62848;SDS011;48941;49.516;8.286;2022-08-26T15:21:48;22.92;;;11.60;;
62848;SDS011;48941;49.516;8.286;2022-08-26T15:24:17;18.20;;;11.07;;
62848;SDS011;48941;49.516;8.286;2022-08-26T15:26:47;17.20;;;12.10;;
62848;SDS011;48941;49.516;8.286;2022-08-26T15:29:15;20.77;;;12.38;;
62848;SDS011;48941;49.516;8.286;2022-08-26T15:31:43;19.23;;;11.90;;
62848;SDS011;48941;49.516;8.286;2022-08-26T15:34:12;15.88;;;11.55;;
62848;SDS011;48941;49.516;8.286;2022-08-26T15:36:42;22.53;;;11.83;;
62848;SDS011;48941;49.516;8.286;2022-08-26T15:39:12;19.67;;;11.05;;